Terminal Aerodrome Forecast
Issued by NWS Binghamton, NY

Home | Current Version | Previous Version | Text Only | Print | Product List | Glossary On
Versions: 1 2 3 4 5 6 7 8 9 10 11 12 13 14 15 16 17 18 19 20 21 22 23 24 25 26 27 28 29 30 31
000
FTUS41 KBGM 170538
TAFAVP
TAF
KAVP 170538Z 1706/1806 36009KT P6SM BKN035
     FM170900 35006KT P6SM FEW200
     FM171900 18006KT P6SM SCT090 BKN150
     FM180100 16008KT P6SM FEW040 OVC050
     FM180300 17008KT 6SM -SN BR OVC035
     FM180500 16007KT 4SM -SN BR OVC022=

USA.gov is the U.S. government's official web portal to all federal, state and local government web resources and services.